createdAt,value
2023-01-03T00:01:06.911Z,4.18
2023-01-03T00:03:38.879Z,4.82
2023-01-03T00:06:16.488Z,4.75
2023-01-03T00:08:49.130Z,5.28
2023-01-03T00:11:41.719Z,4.65
2023-01-03T00:14:18.330Z,4.63
2023-01-03T00:16:51.858Z,4.97
2023-01-03T00:19:26.076Z,4.50
2023-01-03T00:21:58.671Z,4.78
2023-01-03T00:24:30.956Z,4.80
2023-01-03T00:27:03.170Z,4.80
2023-01-03T00:29:36.925Z,4.15
2023-01-03T00:32:08.918Z,4.47
2023-01-03T00:34:44.169Z,3.85
2023-01-03T00:37:16.170Z,3.50
2023-01-03T00:39:48.132Z,3.30
2023-01-03T00:42:20.077Z,3.80
2023-01-03T00:44:53.409Z,2.72
2023-01-03T00:47:25.356Z,3.25
2023-01-03T00:49:57.322Z,2.80
2023-01-03T00:52:29.238Z,3.15
2023-01-03T00:55:01.228Z,2.35
2023-01-03T00:57:33.141Z,1.95
2023-01-03T01:00:07.770Z,2.38
2023-01-03T01:02:39.934Z,2.40
2023-01-03T01:05:12.137Z,2.35
2023-01-03T01:07:44.048Z,2.47
2023-01-03T01:10:19.590Z,1.77
2023-01-03T01:12:55.207Z,1.85
2023-01-03T01:15:28.717Z,1.67
2023-01-03T01:18:00.691Z,1.90
2023-01-03T01:20:32.679Z,2.22
2023-01-03T01:23:04.623Z,2.10
2023-01-03T01:25:36.597Z,1.70
2023-01-03T01:28:08.525Z,1.70
2023-01-03T01:30:42.098Z,1.50
2023-01-03T01:33:14.109Z,1.40
2023-01-03T01:35:46.097Z,1.67
2023-01-03T01:38:18.064Z,1.50
2023-01-03T01:40:50.169Z,1.63
2023-01-03T01:43:42.501Z,1.20
2023-01-03T01:46:22.861Z,1.30
2023-01-03T01:51:33.612Z,1.33
2023-01-03T01:54:07.353Z,1.00
2023-01-03T01:56:43.392Z,0.47
2023-01-03T01:59:16.014Z,0.80
2023-01-03T02:01:50.216Z,0.60
2023-01-03T02:04:24.820Z,0.88
2023-01-03T02:06:58.158Z,1.15
2023-01-03T02:09:33.393Z,0.55
2023-01-03T02:12:32.333Z,0.70
2023-01-03T02:15:15.469Z,1.45
2023-01-03T02:18:00.804Z,0.70
2023-01-03T02:20:51.620Z,0.73
2023-01-03T02:23:42.357Z,0.50
2023-01-03T02:26:42.900Z,0.57
2023-01-03T02:29:50.540Z,0.60
2023-01-03T02:32:34.995Z,0.75
2023-01-03T02:35:14.052Z,0.40
2023-01-03T02:37:55.603Z,0.28
2023-01-03T02:40:35.391Z,0.10
2023-01-03T02:43:15.025Z,0.50
2023-01-03T02:46:00.168Z,0.50
2023-01-03T02:48:48.702Z,0.50
2023-01-03T02:51:25.594Z,0.30
2023-01-03T02:53:59.793Z,0.50
2023-01-03T02:56:38.115Z,0.20
2023-01-03T02:59:14.867Z,0.20
2023-01-03T03:01:50.981Z,0.30
2023-01-03T03:04:25.484Z,0.30
2023-01-03T03:07:04.224Z,0.52
2023-01-03T03:09:56.122Z,0.30
2023-01-03T03:12:49.275Z,0.17
2023-01-03T03:15:25.909Z,0.20
2023-01-03T03:18:04.926Z,0.30
2023-01-03T03:20:57.101Z,0.20
2023-01-03T03:24:05.792Z,0.30
2023-01-03T03:26:42.390Z,0.20
2023-01-03T03:29:18.565Z,0.43
2023-01-03T03:31:52.846Z,0.30
2023-01-03T03:34:27.697Z,0.55
2023-01-03T03:37:04.679Z,0.40
2023-01-03T03:39:55.692Z,0.28
2023-01-03T03:42:52.729Z,0.50
2023-01-03T03:45:32.145Z,0.40
2023-01-03T03:48:09.720Z,0.40
2023-01-03T03:50:47.142Z,0.65
2023-01-03T03:53:24.364Z,0.40
2023-01-03T03:55:59.741Z,0.43
2023-01-03T03:58:39.044Z,0.50
2023-01-03T04:01:14.264Z,0.57
2023-01-03T04:03:47.848Z,0.40
2023-01-03T04:06:24.690Z,0.63
2023-01-03T04:08:58.504Z,0.70
2023-01-03T04:11:30.499Z,0.50
2023-01-03T04:14:02.480Z,0.50
2023-01-03T04:16:34.550Z,0.95
2023-01-03T04:19:06.564Z,0.75
2023-01-03T04:21:38.587Z,0.80
2023-01-03T04:24:11.937Z,0.93
2023-01-03T04:26:43.885Z,1.17
2023-01-03T04:29:16.022Z,1.88
2023-01-03T04:31:48.059Z,0.90
2023-01-03T04:34:20.037Z,1.13
2023-01-03T04:36:52.044Z,1.60
2023-01-03T04:39:25.385Z,0.75
2023-01-03T04:41:57.411Z,0.60
2023-01-03T04:44:29.364Z,0.60
2023-01-03T04:47:01.350Z,0.57
2023-01-03T04:49:33.460Z,0.20
2023-01-03T04:52:05.481Z,0.40
2023-01-03T04:54:39.780Z,0.50
2023-01-03T04:57:11.739Z,0.30
2023-01-03T04:59:43.709Z,0.57
2023-01-03T05:02:15.849Z,0.93
2023-01-03T05:04:47.899Z,0.35
2023-01-03T05:07:20.674Z,1.58
2023-01-03T05:09:54.017Z,1.35
2023-01-03T05:12:25.986Z,0.80
2023-01-03T05:14:58.022Z,0.50
2023-01-03T05:17:29.987Z,0.57
2023-01-03T05:20:20.804Z,0.60
2023-01-03T05:23:11.317Z,0.68
2023-01-03T05:25:50.406Z,0.60
2023-01-03T05:28:24.030Z,0.70
2023-01-03T05:30:57.993Z,0.80
2023-01-03T05:33:29.971Z,0.55
2023-01-03T05:36:04.846Z,1.23
2023-01-03T05:38:37.402Z,1.00
2023-01-03T05:41:13.670Z,1.27
2023-01-03T05:43:45.627Z,1.08
2023-01-03T05:46:17.622Z,1.00
2023-01-03T05:48:49.629Z,1.20
2023-01-03T05:51:21.595Z,1.08
2023-01-03T05:53:53.547Z,1.13
2023-01-03T05:56:26.946Z,0.88
2023-01-03T05:58:59.019Z,0.73
2023-01-03T06:01:31.022Z,0.75
2023-01-03T06:04:03.260Z,0.60
2023-01-03T06:06:35.236Z,0.30
2023-01-03T06:09:07.263Z,0.50
2023-01-03T06:11:41.255Z,0.32
2023-01-03T06:14:13.322Z,0.40
2023-01-03T06:17:03.991Z,0.77
2023-01-03T06:19:35.982Z,0.40
2023-01-03T06:22:10.919Z,0.63
2023-01-03T06:24:44.450Z,1.00
2023-01-03T06:27:17.749Z,1.27
2023-01-03T06:29:49.731Z,1.33
2023-01-03T06:32:21.681Z,1.42
2023-01-03T06:34:53.724Z,1.40
2023-01-03T06:37:25.735Z,0.80
2023-01-03T06:39:57.804Z,0.93
2023-01-03T06:42:44.440Z,2.92
2023-01-03T06:45:34.877Z,0.85
2023-01-03T06:51:15.543Z,1.05
2023-01-03T06:56:23.172Z,1.42
2023-01-03T06:58:56.560Z,2.05
2023-01-03T07:01:28.768Z,1.50
2023-01-03T07:04:02.380Z,1.60
2023-01-03T07:06:34.401Z,1.42
2023-01-03T07:09:07.241Z,1.70
2023-01-03T07:11:40.033Z,1.00
2023-01-03T07:14:13.518Z,2.08
2023-01-03T07:16:47.174Z,1.10
2023-01-03T07:19:20.327Z,3.05
2023-01-03T07:21:52.318Z,2.40
2023-01-03T07:24:24.576Z,1.60
2023-01-03T07:26:56.722Z,1.42
2023-01-03T07:29:30.175Z,1.90
2023-01-03T07:32:02.265Z,2.50
2023-01-03T07:34:34.296Z,2.13
2023-01-03T07:37:06.306Z,2.92
2023-01-03T07:39:38.312Z,1.80
2023-01-03T07:42:28.889Z,1.40
2023-01-03T07:45:02.347Z,1.35
2023-01-03T07:47:34.390Z,1.33
2023-01-03T07:50:06.848Z,1.92
2023-01-03T07:52:38.829Z,1.90
2023-01-03T07:55:10.808Z,2.20
2023-01-03T07:57:43.118Z,1.85
2023-01-03T08:00:17.269Z,2.42
2023-01-03T08:02:52.018Z,1.50
2023-01-03T08:05:24.967Z,1.80
2023-01-03T08:07:56.955Z,2.13
2023-01-03T08:10:47.589Z,2.03
2023-01-03T08:13:19.930Z,1.90
2023-01-03T08:15:57.881Z,3.72
2023-01-03T08:18:30.014Z,2.70
2023-01-03T08:21:02.039Z,1.42
2023-01-03T08:23:34.692Z,2.28
2023-01-03T08:26:10.370Z,1.00
2023-01-03T08:28:44.120Z,1.13
2023-01-03T08:31:21.135Z,1.42
2023-01-03T08:33:57.957Z,0.57
2023-01-03T08:36:34.464Z,0.75
2023-01-03T08:39:09.479Z,1.00
2023-01-03T08:41:45.530Z,0.60
2023-01-03T08:44:17.654Z,0.70
2023-01-03T08:46:54.733Z,0.73
2023-01-03T08:49:27.049Z,0.90
2023-01-03T08:51:59.043Z,0.40
2023-01-03T08:54:31.023Z,0.40
2023-01-03T08:57:03.101Z,0.47
2023-01-03T08:59:35.142Z,0.77
2023-01-03T09:02:08.730Z,0.90
2023-01-03T09:04:40.823Z,0.68
2023-01-03T09:07:12.860Z,0.80
2023-01-03T09:09:44.915Z,0.95
2023-01-03T09:12:16.926Z,1.17
2023-01-03T09:14:48.893Z,0.88
2023-01-03T09:17:22.361Z,1.00
2023-01-03T09:19:54.371Z,1.73
2023-01-03T09:22:26.621Z,1.25
2023-01-03T09:24:58.745Z,1.55
2023-01-03T09:27:30.781Z,0.70
2023-01-03T09:30:03.993Z,0.73
2023-01-03T09:32:37.318Z,0.80
2023-01-03T09:35:10.140Z,0.50
2023-01-03T09:37:47.043Z,0.40
2023-01-03T09:40:20.973Z,0.52
2023-01-03T09:43:11.343Z,0.70
2023-01-03T09:48:22.023Z,0.60
2023-01-03T09:54:04.373Z,0.80
2023-01-03T09:59:45.979Z,0.55
2023-01-03T10:03:08.125Z,0.50
2023-01-03T10:05:59.570Z,0.77
2023-01-03T10:08:39.104Z,0.90
2023-01-03T10:11:19.835Z,0.90
2023-01-03T10:14:05.681Z,0.95
2023-01-03T10:16:49.759Z,0.80
2023-01-03T10:19:57.237Z,1.08
2023-01-03T10:22:32.298Z,1.63
2023-01-03T10:25:12.262Z,1.15
2023-01-03T10:27:47.328Z,1.80
2023-01-03T10:30:23.707Z,1.30
2023-01-03T10:33:13.955Z,1.27
2023-01-03T10:35:45.990Z,1.10
2023-01-03T10:38:20.468Z,1.00
2023-01-03T10:40:56.659Z,1.10
2023-01-03T10:43:32.057Z,1.15
2023-01-03T10:46:06.686Z,0.98
2023-01-03T10:49:17.141Z,1.85
2023-01-03T10:51:42.167Z,1.02
2023-01-03T10:54:26.696Z,0.93
2023-01-03T10:56:58.889Z,1.48
2023-01-03T10:59:31.980Z,1.42
2023-01-03T11:02:16.800Z,1.48
2023-01-03T11:05:12.360Z,0.90
2023-01-03T11:07:49.525Z,1.35
2023-01-03T11:10:24.283Z,2.13
2023-01-03T11:12:56.233Z,1.80
2023-01-03T11:15:39.176Z,1.10
2023-01-03T11:18:18.226Z,1.40
2023-01-03T11:20:54.407Z,0.75
2023-01-03T11:23:39.543Z,2.65
2023-01-03T11:26:22.579Z,0.73
2023-01-03T11:29:05.960Z,1.05
2023-01-03T11:31:48.860Z,0.73
2023-01-03T11:35:20.812Z,0.68
2023-01-03T11:37:44.689Z,1.58
2023-01-03T11:40:25.660Z,2.40
2023-01-03T11:43:14.744Z,1.08
2023-01-03T11:46:10.907Z,1.35
2023-01-03T11:48:57.730Z,1.35
2023-01-03T11:51:41.501Z,1.40
2023-01-03T11:54:32.080Z,1.02
2023-01-03T11:57:12.174Z,1.10
2023-01-03T12:00:00.166Z,1.13
2023-01-03T12:02:53.314Z,1.20
2023-01-03T12:05:41.398Z,0.90
2023-01-03T12:08:57.423Z,0.80
2023-01-03T12:11:59.362Z,0.88
2023-01-03T12:14:36.359Z,0.63
2023-01-03T12:17:15.535Z,1.45
2023-01-03T12:19:52.979Z,0.85
2023-01-03T12:22:30.817Z,1.25
2023-01-03T12:25:14.432Z,0.80
2023-01-03T12:27:51.304Z,0.60
2023-01-03T12:30:30.978Z,0.98
2023-01-03T12:33:13.180Z,1.15
2023-01-03T12:35:51.131Z,1.40
2023-01-03T12:38:28.763Z,1.75
2023-01-03T12:41:12.126Z,2.55
2023-01-03T12:43:49.207Z,67.20
2023-01-03T12:46:30.065Z,6.10
2023-01-03T12:49:10.803Z,4.05
2023-01-03T12:51:42.872Z,3.13
2023-01-03T12:54:26.008Z,3.13
2023-01-03T12:57:13.648Z,7.45
2023-01-03T13:00:05.170Z,5.28
2023-01-03T13:02:47.879Z,3.92
2023-01-03T13:05:27.746Z,5.45
2023-01-03T13:08:07.643Z,2.63
2023-01-03T13:10:43.585Z,3.50
2023-01-03T13:13:18.343Z,2.72
2023-01-03T13:15:50.570Z,3.10
2023-01-03T13:18:36.052Z,3.08
2023-01-03T13:21:41.603Z,5.47
2023-01-03T13:24:42.153Z,3.13
2023-01-03T13:27:25.921Z,4.68
2023-01-03T13:29:58.888Z,2.00
2023-01-03T13:32:37.870Z,1.75
2023-01-03T13:35:28.553Z,3.50
2023-01-03T13:38:24.234Z,2.30
2023-01-03T13:41:18.294Z,1.23
2023-01-03T13:43:52.653Z,1.52
2023-01-03T13:46:29.283Z,1.27
2023-01-03T13:49:04.151Z,1.40
2023-01-03T13:51:47.795Z,2.60
2023-01-03T13:54:56.113Z,11.27
2023-01-03T13:57:36.145Z,7.70
2023-01-03T14:00:18.439Z,1.58
2023-01-03T14:03:21.566Z,2.22
2023-01-03T14:06:16.613Z,1.67
2023-01-03T14:09:16.100Z,1.85
2023-01-03T14:12:16.082Z,2.27
2023-01-03T14:14:53.729Z,2.22
2023-01-03T14:17:30.134Z,1.88
2023-01-03T14:20:09.605Z,2.17
2023-01-03T14:22:49.919Z,1.63
2023-01-03T14:25:33.265Z,1.80
2023-01-03T14:28:19.952Z,1.25
2023-01-03T14:31:03.179Z,1.10
2023-01-03T14:33:38.397Z,1.52
2023-01-03T14:36:14.655Z,1.83
2023-01-03T14:38:48.387Z,1.75
2023-01-03T14:41:29.731Z,1.90
2023-01-03T14:44:04.237Z,2.90
2023-01-03T14:46:39.260Z,7.95
2023-01-03T14:49:20.503Z,5.32
2023-01-03T14:51:58.225Z,9.55
2023-01-03T14:54:30.591Z,7.85
2023-01-03T14:57:02.718Z,4.07
2023-01-03T14:59:35.190Z,5.32
2023-01-03T15:02:11.356Z,3.45
2023-01-03T15:04:44.913Z,2.67
2023-01-03T15:07:34.646Z,4.95
2023-01-03T15:10:17.238Z,9.15
2023-01-03T15:12:53.740Z,6.70
2023-01-03T15:15:30.323Z,14.27
2023-01-03T15:18:08.932Z,8.40
2023-01-03T15:20:44.224Z,13.88
2023-01-03T15:23:29.249Z,11.00
2023-01-03T15:26:01.526Z,21.33
2023-01-03T15:28:37.619Z,17.58
2023-01-03T15:31:15.399Z,8.18
2023-01-03T15:34:11.862Z,4.88
2023-01-03T15:36:47.296Z,10.38
2023-01-03T15:39:21.062Z,7.80
2023-01-03T15:42:43.633Z,3.28
2023-01-03T15:45:10.547Z,3.20
2023-01-03T15:47:43.694Z,2.72
2023-01-03T15:50:21.604Z,3.03
2023-01-03T15:52:53.693Z,3.00
2023-01-03T15:55:25.835Z,2.83
2023-01-03T15:57:57.835Z,2.42
2023-01-03T16:00:30.010Z,3.63
2023-01-03T16:03:02.101Z,2.65
2023-01-03T16:05:35.532Z,2.10
2023-01-03T16:08:19.204Z,2.10
2023-01-03T16:10:51.676Z,2.15
2023-01-03T16:13:25.757Z,1.92
2023-01-03T16:15:59.507Z,6.43
2023-01-03T16:18:36.610Z,4.75
2023-01-03T16:21:10.037Z,4.80
2023-01-03T16:23:42.371Z,4.70
2023-01-03T16:26:15.423Z,3.45
2023-01-03T16:28:47.559Z,2.10
2023-01-03T16:31:23.235Z,2.92
2023-01-03T16:33:55.921Z,2.72
2023-01-03T16:36:32.810Z,3.50
2023-01-03T16:39:06.270Z,2.90
2023-01-03T16:41:38.219Z,3.17
2023-01-03T16:44:10.215Z,13.05
2023-01-03T16:46:42.218Z,34.97
2023-01-03T16:49:14.217Z,24.45
2023-01-03T16:51:55.579Z,33.00
2023-01-03T16:54:29.772Z,17.00
2023-01-03T16:57:01.732Z,12.63
2023-01-03T16:59:34.158Z,19.45
2023-01-03T17:02:06.733Z,28.13
2023-01-03T17:04:38.914Z,11.13
2023-01-03T17:07:17.907Z,11.10
2023-01-03T17:09:51.447Z,26.40
2023-01-03T17:12:24.737Z,59.47
2023-01-03T17:14:57.167Z,19.27
2023-01-03T17:17:29.185Z,15.98
2023-01-03T17:20:04.358Z,24.83
2023-01-03T17:22:39.801Z,13.80
2023-01-03T17:25:11.811Z,13.60
2023-01-03T17:27:46.952Z,11.80
2023-01-03T17:30:21.118Z,35.95
2023-01-03T17:32:53.051Z,39.70
2023-01-03T17:35:26.706Z,15.35
2023-01-03T17:38:27.957Z,6.85
2023-01-03T17:40:55.189Z,7.20
2023-01-03T17:43:27.707Z,6.95
2023-01-03T17:46:23.776Z,5.20
2023-01-03T17:49:22.198Z,4.25
2023-01-03T17:51:56.285Z,4.68
2023-01-03T17:54:31.419Z,3.60
2023-01-03T17:57:04.673Z,12.40
2023-01-03T17:59:36.621Z,4.47
2023-01-03T18:02:17.586Z,7.10
2023-01-03T18:07:45.016Z,77.78
2023-01-03T18:10:21.822Z,130.75
2023-01-03T18:12:54.549Z,184.70
2023-01-03T18:15:26.481Z,44.78
2023-01-03T18:17:58.461Z,24.65
2023-01-03T18:20:31.158Z,21.90
2023-01-03T18:23:03.102Z,11.95
2023-01-03T18:25:36.449Z,8.32
2023-01-03T18:28:10.243Z,5.55
2023-01-03T18:30:42.219Z,6.57
2023-01-03T18:33:14.195Z,5.25
2023-01-03T18:35:46.627Z,4.70
2023-01-03T18:38:25.308Z,2.90
2023-01-03T18:41:04.994Z,4.45
2023-01-03T18:43:37.906Z,3.45
2023-01-03T18:46:13.984Z,5.03
2023-01-03T18:48:46.070Z,3.67
2023-01-03T18:51:20.689Z,4.03
2023-01-03T18:53:56.371Z,4.80
2023-01-03T18:56:32.687Z,5.35
2023-01-03T18:59:08.410Z,3.60
2023-01-03T19:01:40.492Z,12.40
2023-01-03T19:04:12.529Z,4.65
2023-01-03T19:06:46.722Z,3.50
2023-01-03T19:09:22.049Z,2.72
2023-01-03T19:11:56.113Z,2.75
2023-01-03T19:14:28.024Z,2.67
2023-01-03T19:17:00.169Z,1.67
2023-01-03T19:19:32.055Z,3.33
2023-01-03T19:22:07.526Z,2.50
2023-01-03T19:24:39.830Z,1.70
2023-01-03T19:27:17.792Z,2.10
2023-01-03T19:29:50.189Z,2.20
2023-01-03T19:32:25.155Z,4.97
2023-01-03T19:34:57.394Z,2.95
2023-01-03T19:37:29.284Z,4.90
2023-01-03T19:40:01.278Z,2.60
2023-01-03T19:42:50.616Z,2.88
2023-01-03T19:45:29.848Z,2.70
2023-01-03T19:48:04.165Z,4.20
2023-01-03T19:50:36.086Z,1.98
2023-01-03T19:53:08.040Z,3.40
2023-01-03T19:55:42.800Z,3.30
2023-01-03T19:58:19.344Z,3.28
2023-01-03T20:00:52.215Z,4.72
2023-01-03T20:03:29.370Z,5.53
2023-01-03T20:06:01.836Z,20.30
2023-01-03T20:08:33.795Z,6.65
2023-01-03T20:11:06.103Z,4.82
2023-01-03T20:13:39.527Z,11.77
2023-01-03T20:16:12.684Z,14.75
2023-01-03T20:18:44.697Z,17.10
2023-01-03T20:21:22.876Z,22.35
2023-01-03T20:23:58.036Z,8.95
2023-01-03T20:26:31.763Z,8.30
2023-01-03T20:29:05.494Z,5.63
2023-01-03T20:31:37.475Z,2.47
2023-01-03T20:34:09.990Z,3.35
2023-01-03T20:36:44.732Z,3.85
2023-01-03T20:39:25.017Z,2.40
2023-01-03T20:44:36.584Z,4.32
2023-01-03T20:47:12.658Z,3.33
2023-01-03T20:49:44.611Z,5.93
2023-01-03T20:52:17.683Z,8.55
2023-01-03T20:54:49.653Z,8.65
2023-01-03T20:57:21.727Z,7.10
2023-01-03T20:59:55.093Z,2.80
2023-01-03T21:02:27.266Z,2.70
2023-01-03T21:04:59.395Z,5.05
2023-01-03T21:07:49.851Z,3.50
2023-01-03T21:10:23.337Z,2.70
2023-01-03T21:12:55.709Z,2.47
2023-01-03T21:15:29.332Z,4.43
2023-01-03T21:18:01.323Z,9.27
2023-01-03T21:20:33.419Z,4.22
2023-01-03T21:23:05.415Z,5.93
2023-01-03T21:25:37.960Z,3.95
2023-01-03T21:28:11.039Z,4.95
2023-01-03T21:30:44.374Z,12.57
2023-01-03T21:33:18.122Z,4.30
2023-01-03T21:35:50.667Z,3.90
2023-01-03T21:38:22.594Z,4.25
2023-01-03T21:40:54.527Z,2.55
2023-01-03T21:43:26.438Z,3.40
2023-01-03T21:46:00.112Z,14.27
2023-01-03T21:48:32.134Z,10.93
2023-01-03T21:51:05.400Z,9.68
2023-01-03T21:53:37.349Z,8.55
2023-01-03T21:56:11.086Z,8.23
2023-01-03T21:58:43.026Z,4.82
2023-01-03T22:01:18.927Z,2.95
2023-01-03T22:04:09.985Z,12.93
2023-01-03T22:06:41.909Z,10.32
2023-01-03T22:09:33.805Z,3.65
2023-01-03T22:12:06.084Z,3.15
2023-01-03T22:14:38.046Z,1.55
2023-01-03T22:17:11.580Z,3.10
2023-01-03T22:19:43.541Z,2.60
2023-01-03T22:22:15.557Z,3.58
2023-01-03T22:24:47.573Z,2.15
2023-01-03T22:27:19.549Z,5.38
2023-01-03T22:29:51.581Z,1.45
2023-01-03T22:32:26.143Z,4.28
2023-01-03T22:34:58.104Z,1.67
2023-01-03T22:37:30.083Z,2.17
2023-01-03T22:40:02.046Z,2.20
2023-01-03T22:42:34.008Z,2.30
2023-01-03T22:45:07.627Z,1.58
2023-01-03T22:47:41.487Z,16.77
2023-01-03T22:50:13.716Z,12.70
2023-01-03T22:52:45.612Z,14.00
2023-01-03T22:55:17.573Z,32.72
2023-01-03T22:57:49.478Z,15.30
2023-01-03T23:00:21.725Z,22.85
2023-01-03T23:02:55.134Z,18.73
2023-01-03T23:05:27.135Z,25.92
2023-01-03T23:07:59.109Z,23.92
2023-01-03T23:10:31.011Z,7.72
2023-01-03T23:13:02.979Z,10.57
2023-01-03T23:15:34.872Z,13.57
2023-01-03T23:18:08.163Z,12.18
2023-01-03T23:20:48.684Z,14.38
2023-01-03T23:23:20.628Z,9.32
2023-01-03T23:25:52.526Z,9.48
2023-01-03T23:28:24.503Z,10.60
2023-01-03T23:30:56.551Z,9.77
2023-01-03T23:33:29.930Z,9.15
2023-01-03T23:36:05.520Z,9.07
2023-01-03T23:38:37.536Z,7.95
2023-01-03T23:41:10.035Z,2.00
2023-01-03T23:43:42.130Z,4.60
2023-01-03T23:46:16.820Z,1.40
2023-01-03T23:48:54.527Z,1.42
2023-01-03T23:51:27.214Z,2.10
2023-01-03T23:53:59.823Z,1.50
2023-01-03T23:56:31.838Z,1.20
2023-01-03T23:59:04.143Z,1.33
